createdAt,value
2023-05-05T00:00:23.959Z,507.00
2023-05-05T00:01:23.914Z,507.00
2023-05-05T00:02:23.962Z,500.00
2023-05-05T00:03:24.077Z,505.00
2023-05-05T00:04:24.007Z,508.00
2023-05-05T00:05:24.738Z,509.00
2023-05-05T00:06:23.955Z,509.00
2023-05-05T00:07:23.977Z,511.00
2023-05-05T00:08:23.977Z,507.00
2023-05-05T00:09:24.015Z,506.00
2023-05-05T00:10:23.990Z,508.00
2023-05-05T00:11:24.000Z,513.00
2023-05-05T00:12:24.003Z,512.00
2023-05-05T00:13:24.055Z,511.00
2023-05-05T00:14:24.051Z,511.00
2023-05-05T00:15:24.058Z,508.00
2023-05-05T00:16:24.122Z,512.00
2023-05-05T00:17:24.110Z,505.00
2023-05-05T00:18:24.106Z,504.00
2023-05-05T00:19:24.078Z,504.00
2023-05-05T00:20:24.099Z,502.00
2023-05-05T00:21:24.147Z,509.00
2023-05-05T00:22:24.152Z,517.00
2023-05-05T00:23:24.149Z,507.00
2023-05-05T00:24:24.166Z,503.00
2023-05-05T00:25:24.146Z,505.00
2023-05-05T00:26:24.190Z,502.00
2023-05-05T00:27:24.222Z,501.00
2023-05-05T00:28:24.228Z,507.00
2023-05-05T00:29:24.224Z,501.00
2023-05-05T00:30:24.234Z,505.00
2023-05-05T00:31:24.267Z,507.00
2023-05-05T00:32:24.280Z,506.00
2023-05-05T00:33:24.285Z,507.00
2023-05-05T00:34:24.292Z,513.00
2023-05-05T00:35:24.315Z,508.00
2023-05-05T00:36:24.330Z,508.00
2023-05-05T00:37:24.372Z,515.00
2023-05-05T00:38:24.350Z,506.00
2023-05-05T00:39:24.359Z,507.00
2023-05-05T00:40:24.377Z,504.00
2023-05-05T00:41:24.395Z,505.00
2023-05-05T00:42:24.791Z,504.00
2023-05-05T00:43:24.403Z,509.00
2023-05-05T00:44:24.389Z,502.00
2023-05-05T00:45:24.390Z,502.00
2023-05-05T00:46:24.479Z,510.00
2023-05-05T00:47:24.410Z,507.00
2023-05-05T00:48:24.460Z,504.00
2023-05-05T00:49:24.542Z,505.00
2023-05-05T00:50:24.462Z,512.00
2023-05-05T00:51:24.464Z,504.00
2023-05-05T00:52:24.526Z,510.00
2023-05-05T00:53:24.516Z,512.00
2023-05-05T00:54:24.548Z,512.00
2023-05-05T00:55:24.561Z,507.00
2023-05-05T00:56:24.576Z,507.00
2023-05-05T00:57:24.580Z,503.00
2023-05-05T00:58:24.558Z,507.00
2023-05-05T00:59:24.601Z,512.00
2023-05-05T01:00:24.612Z,507.00
2023-05-05T01:01:24.667Z,504.00
2023-05-05T01:02:24.789Z,508.00
2023-05-05T01:03:24.918Z,508.00
2023-05-05T01:04:24.677Z,506.00
2023-05-05T01:05:24.701Z,505.00
2023-05-05T01:06:24.731Z,506.00
2023-05-05T01:07:24.702Z,500.00
2023-05-05T01:08:24.752Z,506.00
2023-05-05T01:09:24.753Z,507.00
2023-05-05T01:10:25.091Z,507.00
2023-05-05T01:11:24.803Z,502.00
2023-05-05T01:12:24.813Z,502.00
2023-05-05T01:13:24.832Z,507.00
2023-05-05T01:14:24.816Z,512.00
2023-05-05T01:15:24.874Z,510.00
2023-05-05T01:16:25.847Z,507.00
2023-05-05T01:17:24.941Z,506.00
2023-05-05T01:18:24.922Z,507.00
2023-05-05T01:19:24.931Z,512.00
2023-05-05T01:20:24.979Z,507.00
2023-05-05T01:21:24.962Z,507.00
2023-05-05T01:22:24.961Z,509.00
2023-05-05T01:23:25.004Z,512.00
2023-05-05T01:24:25.032Z,508.00
2023-05-05T01:25:25.076Z,508.00
2023-05-05T01:26:25.042Z,511.00
2023-05-05T01:27:25.081Z,500.00
2023-05-05T01:28:25.096Z,504.00
2023-05-05T01:29:25.124Z,508.00
2023-05-05T01:30:25.145Z,510.00
2023-05-05T01:31:25.156Z,507.00
2023-05-05T01:32:25.218Z,507.00
2023-05-05T01:33:25.177Z,501.00
2023-05-05T01:34:25.226Z,508.00
2023-05-05T01:35:25.246Z,506.00
2023-05-05T01:36:25.261Z,504.00
2023-05-05T01:37:25.264Z,503.00
2023-05-05T01:38:25.300Z,502.00
2023-05-05T01:39:25.346Z,501.00
2023-05-05T01:40:25.347Z,505.00
2023-05-05T01:41:25.359Z,507.00
2023-05-05T01:42:25.389Z,505.00
2023-05-05T01:43:25.396Z,504.00
2023-05-05T01:44:25.404Z,505.00
2023-05-05T01:45:25.413Z,501.00
2023-05-05T01:46:25.477Z,508.00
2023-05-05T01:47:25.554Z,502.00
2023-05-05T01:48:25.485Z,503.00
2023-05-05T01:49:25.528Z,504.00
2023-05-05T01:50:25.557Z,507.00
2023-05-05T01:51:25.598Z,510.00
2023-05-05T01:52:25.592Z,501.00
2023-05-05T01:53:25.614Z,505.00
2023-05-05T01:54:25.625Z,507.00
2023-05-05T01:55:25.691Z,506.00
2023-05-05T01:56:25.744Z,503.00
2023-05-05T01:57:25.744Z,504.00
2023-05-05T01:58:25.782Z,504.00
2023-05-05T01:59:25.763Z,504.00
2023-05-05T02:00:25.798Z,504.00
2023-05-05T02:01:25.871Z,507.00
2023-05-05T02:02:26.368Z,502.00
2023-05-05T02:03:25.893Z,506.00
2023-05-05T02:04:25.904Z,505.00
2023-05-05T02:05:25.889Z,506.00
2023-05-05T02:06:25.922Z,504.00
2023-05-05T02:07:25.944Z,503.00
2023-05-05T02:08:26.323Z,509.00
2023-05-05T02:09:26.028Z,504.00
2023-05-05T02:10:26.051Z,510.00
2023-05-05T02:11:26.062Z,505.00
2023-05-05T02:12:26.094Z,504.00
2023-05-05T02:13:26.232Z,505.00
2023-05-05T02:14:26.161Z,510.00
2023-05-05T02:15:26.208Z,509.00
2023-05-05T02:16:26.220Z,508.00
2023-05-05T02:17:26.294Z,506.00
2023-05-05T02:18:26.262Z,505.00
2023-05-05T02:19:26.312Z,510.00
2023-05-05T02:20:26.360Z,504.00
2023-05-05T02:21:26.348Z,503.00
2023-05-05T02:22:26.399Z,508.00
2023-05-05T02:23:26.486Z,504.00
2023-05-05T02:24:26.473Z,507.00
2023-05-05T02:25:26.462Z,504.00
2023-05-05T02:26:27.304Z,506.00
2023-05-05T02:27:26.523Z,509.00
2023-05-05T02:28:26.802Z,502.00
2023-05-05T02:29:26.593Z,506.00
2023-05-05T02:30:26.661Z,510.00
2023-05-05T02:31:26.698Z,505.00
2023-05-05T02:32:26.739Z,504.00
2023-05-05T02:33:26.784Z,506.00
2023-05-05T02:34:26.798Z,510.00
2023-05-05T02:35:26.812Z,508.00
2023-05-05T02:36:26.852Z,503.00
2023-05-05T02:37:26.911Z,506.00
2023-05-05T02:38:27.281Z,506.00
2023-05-05T02:39:26.961Z,510.00
2023-05-05T02:40:27.007Z,509.00
2023-05-05T02:41:27.045Z,506.00
2023-05-05T02:42:27.093Z,502.00
2023-05-05T02:43:27.126Z,508.00
2023-05-05T02:44:27.128Z,502.00
2023-05-05T02:45:27.166Z,513.00
2023-05-05T02:46:27.272Z,504.00
2023-05-05T02:47:27.278Z,505.00
2023-05-05T02:48:27.307Z,504.00
2023-05-05T02:49:27.299Z,507.00
2023-05-05T02:50:27.317Z,503.00
2023-05-05T02:51:27.342Z,506.00
2023-05-05T02:52:27.399Z,504.00
2023-05-05T02:53:27.441Z,505.00
2023-05-05T02:54:27.482Z,509.00
2023-05-05T02:55:27.502Z,518.00
2023-05-05T02:56:27.518Z,508.00
2023-05-05T02:57:27.524Z,505.00
2023-05-05T02:58:27.604Z,512.00
2023-05-05T02:59:27.606Z,508.00
2023-05-05T03:00:27.645Z,506.00
2023-05-05T03:01:27.761Z,505.00
2023-05-05T03:02:27.778Z,505.00
2023-05-05T03:03:27.869Z,503.00
2023-05-05T03:04:27.791Z,504.00
2023-05-05T03:05:27.836Z,504.00
2023-05-05T03:06:27.839Z,501.00
2023-05-05T03:07:27.872Z,504.00
2023-05-05T03:08:27.923Z,508.00
2023-05-05T03:09:27.940Z,505.00
2023-05-05T03:10:27.996Z,501.00
2023-05-05T03:11:28.007Z,509.00
2023-05-05T03:12:28.047Z,507.00
2023-05-05T03:13:28.093Z,501.00
2023-05-05T03:14:28.150Z,504.00
2023-05-05T03:15:28.169Z,505.00
2023-05-05T03:16:28.221Z,505.00
2023-05-05T03:17:28.284Z,505.00
2023-05-05T03:18:28.285Z,504.00
2023-05-05T03:19:28.325Z,504.00
2023-05-05T03:20:28.338Z,504.00
2023-05-05T03:21:28.388Z,500.00
2023-05-05T03:22:28.428Z,500.00
2023-05-05T03:23:28.501Z,502.00
2023-05-05T03:24:28.537Z,500.00
2023-05-05T03:25:28.552Z,505.00
2023-05-05T03:26:28.538Z,503.00
2023-05-05T03:27:28.579Z,508.00
2023-05-05T03:28:28.641Z,504.00
2023-05-05T03:29:28.668Z,511.00
2023-05-05T03:30:28.754Z,512.00
2023-05-05T03:31:28.797Z,511.00
2023-05-05T03:32:28.819Z,511.00
2023-05-05T03:33:28.826Z,504.00
2023-05-05T03:34:28.891Z,506.00
2023-05-05T03:35:28.934Z,513.00
2023-05-05T03:36:29.523Z,505.00
2023-05-05T03:37:28.974Z,512.00
2023-05-05T03:38:28.995Z,514.00
2023-05-05T03:39:29.035Z,512.00
2023-05-05T03:40:40.335Z,512.00
2023-05-05T03:41:30.073Z,512.00
2023-05-05T03:42:29.088Z,512.00
2023-05-05T03:43:29.080Z,513.00
2023-05-05T03:44:29.076Z,512.00
2023-05-05T03:45:29.096Z,505.00
2023-05-05T03:46:29.076Z,512.00
2023-05-05T03:47:29.097Z,501.00
2023-05-05T03:48:29.039Z,507.00
2023-05-05T03:49:29.025Z,501.00
2023-05-05T03:50:29.030Z,507.00
2023-05-05T03:51:29.008Z,510.00
2023-05-05T03:52:29.036Z,508.00
2023-05-05T03:53:29.078Z,505.00
2023-05-05T03:54:29.084Z,506.00
2023-05-05T03:55:29.132Z,507.00
2023-05-05T03:56:29.213Z,506.00
2023-05-05T03:57:29.218Z,508.00
2023-05-05T03:58:29.258Z,507.00
2023-05-05T03:59:29.342Z,507.00
2023-05-05T04:00:29.393Z,512.00
2023-05-05T04:01:29.408Z,507.00
2023-05-05T04:02:29.510Z,507.00
2023-05-05T04:03:29.537Z,506.00
2023-05-05T04:04:29.597Z,506.00
2023-05-05T04:05:29.577Z,503.00
2023-05-05T04:06:29.606Z,506.00
2023-05-05T04:07:29.621Z,509.00
2023-05-05T04:08:29.829Z,506.00
2023-05-05T04:09:29.754Z,505.00
2023-05-05T04:10:29.744Z,502.00
2023-05-05T04:11:29.802Z,508.00
2023-05-05T04:12:29.903Z,502.00
2023-05-05T04:13:29.903Z,504.00
2023-05-05T04:14:29.929Z,507.00
2023-05-05T04:15:29.953Z,506.00
2023-05-05T04:16:30.091Z,505.00
2023-05-05T04:17:30.021Z,511.00
2023-05-05T04:18:30.048Z,507.00
2023-05-05T04:19:30.081Z,507.00
2023-05-05T04:20:30.126Z,508.00
2023-05-05T04:21:30.174Z,503.00
2023-05-05T04:22:30.251Z,507.00
2023-05-05T04:23:30.233Z,503.00
2023-05-05T04:24:30.296Z,508.00
2023-05-05T04:25:30.345Z,503.00
2023-05-05T04:26:30.404Z,504.00
2023-05-05T04:27:31.346Z,507.00
2023-05-05T04:28:30.504Z,504.00
2023-05-05T04:29:30.529Z,509.00
2023-05-05T04:30:30.610Z,507.00
2023-05-05T04:31:30.673Z,506.00
2023-05-05T04:32:30.642Z,508.00
2023-05-05T04:33:30.708Z,506.00
2023-05-05T04:34:30.729Z,507.00
2023-05-05T04:35:30.770Z,509.00
2023-05-05T04:36:30.845Z,500.00
2023-05-05T04:37:30.865Z,507.00
2023-05-05T04:38:30.970Z,506.00
2023-05-05T04:39:30.974Z,504.00
2023-05-05T04:40:31.016Z,503.00
2023-05-05T04:41:31.063Z,502.00
2023-05-05T04:42:31.113Z,504.00
2023-05-05T04:43:31.140Z,511.00
2023-05-05T04:44:31.192Z,509.00
2023-05-05T04:45:31.221Z,512.00
2023-05-05T04:46:31.351Z,508.00
2023-05-05T04:47:31.361Z,512.00
2023-05-05T04:48:31.348Z,504.00
2023-05-05T04:49:31.391Z,503.00
2023-05-05T04:50:31.471Z,504.00
2023-05-05T04:51:31.497Z,511.00
2023-05-05T04:52:31.519Z,503.00
2023-05-05T04:53:31.593Z,506.00
2023-05-05T04:54:31.615Z,509.00
2023-05-05T04:55:31.673Z,504.00
2023-05-05T04:56:31.740Z,507.00
2023-05-05T04:57:31.752Z,504.00
2023-05-05T04:58:31.813Z,514.00
2023-05-05T04:59:31.848Z,503.00
2023-05-05T05:00:31.867Z,508.00
2023-05-05T05:01:31.938Z,511.00
2023-05-05T05:02:32.087Z,508.00
2023-05-05T05:03:32.502Z,504.00
2023-05-05T05:04:32.070Z,503.00
2023-05-05T05:05:32.133Z,502.00
2023-05-05T05:06:32.155Z,505.00
2023-05-05T05:07:32.210Z,506.00
2023-05-05T05:08:32.240Z,510.00
2023-05-05T05:09:32.292Z,506.00
2023-05-05T05:10:32.323Z,506.00
2023-05-05T05:11:32.405Z,506.00
2023-05-05T05:12:32.491Z,506.00
2023-05-05T05:13:32.490Z,507.00
2023-05-05T05:14:32.516Z,501.00
2023-05-05T05:15:32.567Z,506.00
2023-05-05T05:16:32.655Z,507.00
2023-05-05T05:17:32.654Z,508.00
2023-05-05T05:18:32.726Z,509.00
2023-05-05T05:19:32.713Z,505.00
2023-05-05T05:20:32.806Z,509.00
2023-05-05T05:21:32.856Z,507.00
2023-05-05T05:22:33.015Z,504.00
2023-05-05T05:23:33.017Z,503.00
2023-05-05T05:24:33.031Z,506.00
2023-05-05T05:25:33.084Z,504.00
2023-05-05T05:26:33.080Z,504.00
2023-05-05T05:27:33.140Z,513.00
2023-05-05T05:28:33.373Z,504.00
2023-05-05T05:29:33.184Z,505.00
2023-05-05T05:30:33.246Z,502.00
2023-05-05T05:31:33.327Z,507.00
2023-05-05T05:32:33.359Z,504.00
2023-05-05T05:33:33.889Z,506.00
2023-05-05T05:34:33.432Z,511.00
2023-05-05T05:35:33.473Z,504.00
2023-05-05T05:36:33.504Z,509.00
2023-05-05T05:37:33.547Z,502.00
2023-05-05T05:38:33.860Z,512.00
2023-05-05T05:39:33.651Z,507.00
2023-05-05T05:40:33.655Z,506.00
2023-05-05T05:41:33.716Z,503.00
2023-05-05T05:42:33.762Z,508.00
2023-05-05T05:43:33.804Z,504.00
2023-05-05T05:44:33.859Z,504.00
2023-05-05T05:45:33.874Z,504.00
2023-05-05T05:46:34.000Z,503.00
2023-05-05T05:47:33.961Z,507.00
2023-05-05T05:48:34.002Z,506.00
2023-05-05T05:49:34.033Z,510.00
2023-05-05T05:50:34.046Z,506.00
2023-05-05T05:51:34.137Z,507.00
2023-05-05T05:52:34.168Z,504.00
2023-05-05T05:53:34.209Z,503.00
2023-05-05T05:54:34.242Z,505.00
2023-05-05T05:55:34.277Z,504.00
2023-05-05T05:56:34.308Z,503.00
2023-05-05T05:57:34.368Z,506.00
2023-05-05T05:58:34.861Z,515.00
2023-05-05T05:59:34.414Z,505.00
2023-05-05T06:00:34.485Z,500.00
2023-05-05T06:01:34.506Z,502.00
2023-05-05T06:02:34.571Z,509.00
2023-05-05T06:03:34.903Z,510.00
2023-05-05T06:04:34.704Z,531.00
2023-05-05T06:05:34.665Z,523.00
2023-05-05T06:06:34.691Z,519.00
2023-05-05T06:07:34.732Z,526.00
2023-05-05T06:08:34.902Z,525.00
2023-05-05T06:09:34.744Z,523.00
2023-05-05T06:10:35.247Z,507.00
2023-05-05T06:11:34.821Z,509.00
2023-05-05T06:12:34.893Z,510.00
2023-05-05T06:13:34.866Z,525.00
2023-05-05T06:14:34.928Z,521.00
2023-05-05T06:15:34.963Z,516.00
2023-05-05T06:16:34.989Z,518.00
2023-05-05T06:17:34.953Z,527.00
2023-05-05T06:18:35.016Z,529.00
2023-05-05T06:19:35.016Z,535.00
2023-05-05T06:20:35.036Z,548.00
2023-05-05T06:21:35.092Z,555.00
2023-05-05T06:22:35.099Z,552.00
2023-05-05T06:23:35.400Z,546.00
2023-05-05T06:24:35.126Z,543.00
2023-05-05T06:25:35.162Z,555.00
2023-05-05T06:26:35.169Z,554.00
2023-05-05T06:27:35.221Z,545.00
2023-05-05T06:28:35.242Z,548.00
2023-05-05T06:29:35.224Z,549.00
2023-05-05T06:30:35.252Z,552.00
2023-05-05T06:31:35.333Z,551.00
2023-05-05T06:32:35.242Z,550.00
2023-05-05T06:33:35.384Z,560.00
2023-05-05T06:34:35.287Z,567.00
2023-05-05T06:35:35.309Z,578.00
2023-05-05T06:36:35.330Z,576.00
2023-05-05T06:37:35.321Z,567.00
2023-05-05T06:38:35.388Z,567.00
2023-05-05T06:39:35.347Z,556.00
2023-05-05T06:40:35.343Z,568.00
2023-05-05T06:41:35.344Z,556.00
2023-05-05T06:42:35.364Z,570.00
2023-05-05T06:43:35.348Z,570.00
2023-05-05T06:44:35.397Z,564.00
2023-05-05T06:45:35.386Z,569.00
2023-05-05T06:46:35.501Z,571.00
2023-05-05T06:47:35.429Z,568.00
2023-05-05T06:48:35.380Z,574.00
2023-05-05T06:49:35.388Z,576.00
2023-05-05T06:50:35.388Z,578.00
2023-05-05T06:51:35.400Z,567.00
2023-05-05T06:52:35.399Z,574.00
2023-05-05T06:53:35.428Z,578.00
2023-05-05T06:54:35.433Z,577.00
2023-05-05T06:55:35.432Z,590.00
2023-05-05T06:56:35.424Z,576.00
2023-05-05T06:57:35.512Z,582.00
2023-05-05T06:58:35.895Z,584.00
2023-05-05T06:59:35.418Z,587.00
2023-05-05T07:00:35.509Z,585.00
2023-05-05T07:01:36.393Z,582.00
2023-05-05T07:02:35.442Z,595.00
2023-05-05T07:03:35.883Z,594.00
2023-05-05T07:04:35.452Z,603.00
2023-05-05T07:05:35.480Z,589.00
2023-05-05T07:06:35.460Z,599.00
2023-05-05T07:07:35.474Z,591.00
2023-05-05T07:08:35.526Z,606.00
2023-05-05T07:09:35.526Z,618.00
2023-05-05T07:10:35.558Z,617.00
2023-05-05T07:11:35.610Z,613.00
2023-05-05T07:12:35.657Z,606.00
2023-05-05T07:13:36.052Z,594.00
2023-05-05T07:14:35.732Z,589.00
2023-05-05T07:15:35.770Z,604.00
2023-05-05T07:16:35.868Z,595.00
2023-05-05T07:17:35.918Z,586.00
2023-05-05T07:18:35.933Z,600.00
2023-05-05T07:19:35.978Z,602.00
2023-05-05T07:20:36.017Z,606.00
2023-05-05T07:21:36.088Z,603.00
2023-05-05T07:22:36.120Z,601.00
2023-05-05T07:23:36.374Z,610.00
2023-05-05T07:24:36.243Z,612.00
2023-05-05T07:25:36.316Z,610.00
2023-05-05T07:26:36.360Z,623.00
2023-05-05T07:27:36.433Z,649.00
2023-05-05T07:28:36.510Z,639.00
2023-05-05T07:29:36.626Z,632.00
2023-05-05T07:30:36.619Z,642.00
2023-05-05T07:31:36.683Z,640.00
2023-05-05T07:32:36.772Z,625.00
2023-05-05T07:33:36.782Z,642.00
2023-05-05T07:34:36.868Z,632.00
2023-05-05T07:35:36.895Z,639.00
2023-05-05T07:36:36.979Z,634.00
2023-05-05T07:37:37.036Z,630.00
2023-05-05T07:38:37.381Z,630.00
2023-05-05T07:39:37.137Z,655.00
2023-05-05T07:40:37.164Z,698.00
2023-05-05T07:41:37.186Z,670.00
2023-05-05T07:42:37.259Z,666.00
2023-05-05T07:43:39.272Z,684.00
2023-05-05T07:44:37.377Z,671.00
2023-05-05T07:45:37.477Z,670.00
2023-05-05T07:46:37.578Z,712.00
2023-05-05T07:47:37.597Z,806.00
2023-05-05T07:48:37.617Z,861.00
2023-05-05T07:49:37.628Z,835.00
2023-05-05T07:50:37.654Z,781.00
2023-05-05T07:51:37.727Z,822.00
2023-05-05T07:52:46.122Z,819.00
2023-05-05T07:53:38.710Z,820.00
2023-05-05T07:54:37.718Z,827.00
2023-05-05T07:55:37.718Z,823.00
2023-05-05T07:56:37.710Z,852.00
2023-05-05T07:57:37.686Z,900.00
2023-05-05T07:58:37.701Z,901.00
2023-05-05T07:59:37.725Z,908.00
2023-05-05T08:00:37.675Z,926.00
2023-05-05T08:01:37.847Z,939.00
2023-05-05T08:02:37.760Z,948.00
2023-05-05T08:03:37.957Z,949.00
2023-05-05T08:04:37.937Z,937.00
2023-05-05T08:05:37.652Z,938.00
2023-05-05T08:06:37.667Z,948.00
2023-05-05T08:07:37.668Z,983.00
2023-05-05T08:08:37.723Z,972.00
2023-05-05T08:09:37.727Z,977.00
2023-05-05T08:10:37.720Z,988.00
2023-05-05T08:11:37.723Z,983.00
2023-05-05T08:12:37.863Z,978.00
2023-05-05T08:13:37.770Z,1008.00
2023-05-05T08:14:37.912Z,1013.00
2023-05-05T08:15:37.820Z,1003.00
2023-05-05T08:16:37.818Z,1027.00
2023-05-05T08:17:37.912Z,1041.00
2023-05-05T08:18:37.859Z,1010.00
2023-05-05T08:19:37.848Z,953.00
2023-05-05T08:20:37.887Z,945.00
2023-05-05T08:21:37.908Z,929.00
2023-05-05T08:22:37.914Z,901.00
2023-05-05T08:23:37.948Z,909.00
2023-05-05T08:24:38.426Z,875.00
2023-05-05T08:25:38.007Z,873.00
2023-05-05T08:26:38.041Z,879.00
2023-05-05T08:27:38.074Z,873.00
2023-05-05T08:28:38.093Z,893.00
2023-05-05T08:29:38.417Z,886.00
2023-05-05T08:30:38.119Z,849.00
2023-05-05T08:31:38.275Z,848.00
2023-05-05T08:32:38.199Z,851.00
2023-05-05T08:33:38.270Z,837.00
2023-05-05T08:34:38.436Z,852.00
2023-05-05T08:35:38.243Z,814.00
2023-05-05T08:36:38.261Z,821.00
2023-05-05T08:37:38.278Z,846.00
2023-05-05T08:38:38.305Z,816.00
2023-05-05T08:39:38.321Z,820.00
2023-05-05T08:40:38.320Z,816.00
2023-05-05T08:41:38.366Z,823.00
2023-05-05T08:42:39.423Z,822.00
2023-05-05T08:43:38.376Z,806.00
2023-05-05T08:44:38.399Z,871.00
2023-05-05T08:45:38.407Z,901.00
2023-05-05T08:46:38.515Z,934.00
2023-05-05T08:47:38.545Z,943.00
2023-05-05T08:48:38.466Z,953.00
2023-05-05T08:49:38.583Z,970.00
2023-05-05T08:50:38.490Z,978.00
2023-05-05T08:51:38.473Z,967.00
2023-05-05T08:52:38.481Z,988.00
2023-05-05T08:53:38.487Z,1007.00
2023-05-05T08:54:38.942Z,1007.00
2023-05-05T08:55:38.489Z,1014.00
2023-05-05T08:56:38.500Z,1035.00
2023-05-05T08:57:38.472Z,1044.00
2023-05-05T08:58:38.471Z,1023.00
2023-05-05T08:59:38.551Z,1043.00
2023-05-05T09:00:38.550Z,1060.00
2023-05-05T09:01:38.523Z,1090.00
2023-05-05T09:02:38.533Z,1078.00
2023-05-05T09:03:38.529Z,1068.00
2023-05-05T09:04:38.915Z,1055.00
2023-05-05T09:05:38.569Z,1037.00
2023-05-05T09:06:38.512Z,1007.00
2023-05-05T09:07:38.539Z,1053.00
2023-05-05T09:08:38.500Z,1068.00
2023-05-05T09:09:38.480Z,1077.00
2023-05-05T09:10:38.480Z,1104.00
2023-05-05T09:11:38.454Z,1087.00
2023-05-05T09:12:38.505Z,1119.00
2023-05-05T09:13:38.473Z,1150.00
2023-05-05T09:14:38.975Z,1149.00
2023-05-05T09:15:38.504Z,1166.00
2023-05-05T09:16:38.556Z,1180.00
2023-05-05T09:17:38.546Z,1126.00
2023-05-05T09:18:38.551Z,1150.00
2023-05-05T09:19:38.509Z,1160.00
2023-05-05T09:20:38.559Z,1128.00
2023-05-05T09:21:39.187Z,1150.00
2023-05-05T09:22:38.558Z,1182.00
2023-05-05T09:23:38.571Z,1148.00
2023-05-05T09:24:38.566Z,1168.00
2023-05-05T09:25:38.567Z,1143.00
2023-05-05T09:26:38.562Z,1183.00
2023-05-05T09:27:38.565Z,1209.00
2023-05-05T09:28:38.574Z,1222.00
2023-05-05T09:29:38.627Z,1231.00
2023-05-05T09:30:38.608Z,1234.00
2023-05-05T09:31:38.620Z,1225.00
2023-05-05T09:32:38.610Z,1275.00
2023-05-05T09:33:38.584Z,1274.00
2023-05-05T09:34:38.941Z,1252.00
2023-05-05T09:35:38.596Z,1252.00
2023-05-05T09:36:38.568Z,1278.00
2023-05-05T09:37:38.775Z,1296.00
2023-05-05T09:38:38.575Z,1300.00
2023-05-05T09:39:38.931Z,1289.00
2023-05-05T09:40:38.581Z,1293.00
2023-05-05T09:41:38.589Z,1285.00
2023-05-05T09:42:38.594Z,1289.00
2023-05-05T09:43:38.564Z,1312.00
2023-05-05T09:44:38.950Z,1311.00
2023-05-05T09:45:38.577Z,1308.00
2023-05-05T09:46:38.686Z,1288.00
2023-05-05T09:47:38.652Z,1277.00
2023-05-05T09:48:38.570Z,1272.00
2023-05-05T09:49:38.946Z,1283.00
2023-05-05T09:50:38.571Z,1268.00
2023-05-05T09:51:38.558Z,1285.00
2023-05-05T09:52:38.584Z,1264.00
2023-05-05T09:53:38.633Z,1272.00
2023-05-05T09:54:38.573Z,1272.00
2023-05-05T09:55:38.598Z,1275.00
2023-05-05T09:56:38.618Z,1239.00
2023-05-05T09:57:38.623Z,1277.00
2023-05-05T09:58:38.664Z,1278.00
2023-05-05T09:59:38.625Z,1281.00
2023-05-05T10:00:38.695Z,1285.00
2023-05-05T10:01:38.714Z,1300.00
2023-05-05T10:02:38.743Z,1303.00
2023-05-05T10:03:38.662Z,1334.00
2023-05-05T10:04:38.643Z,1314.00
2023-05-05T10:05:38.635Z,1325.00
2023-05-05T10:06:38.624Z,1328.00
2023-05-05T10:07:38.631Z,1326.00
2023-05-05T10:08:38.618Z,1309.00
2023-05-05T10:09:38.631Z,1311.00
2023-05-05T10:10:38.718Z,1276.00
2023-05-05T10:11:38.669Z,1291.00
2023-05-05T10:12:38.768Z,1261.00
2023-05-05T10:13:38.659Z,1312.00
2023-05-05T10:14:38.939Z,1301.00
2023-05-05T10:15:38.638Z,1288.00
2023-05-05T10:16:38.718Z,1259.00
2023-05-05T10:17:38.719Z,1285.00
2023-05-05T10:18:38.796Z,1289.00
2023-05-05T10:19:38.950Z,1252.00
2023-05-05T10:20:38.733Z,1267.00
2023-05-05T10:21:40.213Z,1287.00
2023-05-05T10:22:38.634Z,1328.00
2023-05-05T10:23:38.628Z,1306.00
2023-05-05T10:24:38.642Z,1314.00
2023-05-05T10:25:38.604Z,1332.00
2023-05-05T10:26:38.612Z,1318.00
2023-05-05T10:27:38.581Z,1305.00
2023-05-05T10:28:38.607Z,1279.00
2023-05-05T10:29:38.991Z,1297.00
2023-05-05T10:30:38.611Z,1321.00
2023-05-05T10:31:38.595Z,1327.00
2023-05-05T10:33:38.695Z,1306.00
2023-05-05T10:34:39.063Z,1310.00
2023-05-05T10:35:38.592Z,1322.00
2023-05-05T10:36:38.711Z,1308.00
2023-05-05T10:37:38.583Z,1306.00
2023-05-05T10:38:38.497Z,1282.00
2023-05-05T10:39:38.983Z,1318.00
2023-05-05T10:40:38.507Z,1281.00
2023-05-05T10:41:38.605Z,1300.00
2023-05-05T10:42:38.534Z,1320.00
2023-05-05T10:43:38.495Z,1316.00
2023-05-05T10:44:38.994Z,1273.00
2023-05-05T10:45:38.610Z,1294.00
2023-05-05T10:46:38.626Z,1305.00
2023-05-05T10:47:38.475Z,1264.00
2023-05-05T10:48:38.481Z,1257.00
2023-05-05T10:49:38.469Z,1240.00
2023-05-05T10:50:38.471Z,1243.00
2023-05-05T10:52:38.416Z,1218.00
2023-05-05T10:53:38.433Z,1214.00
2023-05-05T10:54:38.631Z,1234.00
2023-05-05T10:55:38.436Z,1239.00
2023-05-05T10:56:38.386Z,1241.00
2023-05-05T10:57:38.640Z,1259.00
2023-05-05T10:58:51.308Z,1255.00
2023-05-05T10:59:39.470Z,1257.00
2023-05-05T11:00:38.402Z,1259.00
2023-05-05T11:01:38.398Z,1230.00
2023-05-05T11:02:38.387Z,1194.00
2023-05-05T11:03:38.411Z,1218.00
2023-05-05T11:04:38.343Z,1193.00
2023-05-05T11:05:38.373Z,1208.00
2023-05-05T11:06:38.313Z,1215.00
2023-05-05T11:07:38.342Z,1207.00
2023-05-05T11:08:38.300Z,1211.00
2023-05-05T11:09:38.311Z,1249.00
2023-05-05T11:10:38.317Z,1251.00
2023-05-05T11:11:38.311Z,1268.00
2023-05-05T11:12:38.963Z,1252.00
2023-05-05T11:13:38.417Z,1252.00
2023-05-05T11:14:38.271Z,1241.00
2023-05-05T11:15:38.293Z,1249.00
2023-05-05T11:16:38.315Z,1225.00
2023-05-05T11:17:38.278Z,1219.00
2023-05-05T11:18:38.287Z,1220.00
2023-05-05T11:19:38.500Z,1180.00
2023-05-05T11:20:38.234Z,1221.00
2023-05-05T11:21:38.222Z,1236.00
2023-05-05T11:22:38.221Z,1234.00
2023-05-05T11:23:38.217Z,1254.00
2023-05-05T11:24:38.555Z,1243.00
2023-05-05T11:25:38.375Z,1251.00
2023-05-05T11:26:38.228Z,1226.00
2023-05-05T11:27:38.204Z,1238.00
2023-05-05T11:28:38.180Z,1229.00
2023-05-05T11:29:38.258Z,1212.00
2023-05-05T11:30:38.503Z,1218.00
2023-05-05T11:31:38.297Z,1225.00
2023-05-05T11:32:38.193Z,1202.00
2023-05-05T11:33:38.188Z,1170.00
2023-05-05T11:34:38.134Z,1195.00
2023-05-05T11:35:38.494Z,1156.00
2023-05-05T11:36:38.151Z,1138.00
2023-05-05T11:37:38.141Z,1132.00
2023-05-05T11:38:38.137Z,1107.00
2023-05-05T11:39:38.140Z,1087.00
2023-05-05T11:40:38.542Z,1065.00
2023-05-05T11:41:38.170Z,1043.00
2023-05-05T11:42:38.185Z,1060.00
2023-05-05T11:43:38.175Z,1013.00
2023-05-05T11:44:38.180Z,1011.00
2023-05-05T11:45:38.629Z,983.00
2023-05-05T11:46:38.280Z,1015.00
2023-05-05T11:47:38.260Z,1016.00
2023-05-05T11:48:38.216Z,1013.00
2023-05-05T11:49:38.246Z,1015.00
2023-05-05T11:50:38.491Z,1014.00
2023-05-05T11:51:38.273Z,1003.00
2023-05-05T11:52:38.274Z,1010.00
2023-05-05T11:53:38.325Z,996.00
2023-05-05T11:54:38.348Z,996.00
2023-05-05T11:55:38.371Z,989.00
2023-05-05T11:56:38.696Z,966.00
2023-05-05T11:57:38.408Z,960.00
2023-05-05T11:58:38.416Z,958.00
2023-05-05T11:59:38.419Z,954.00
2023-05-05T12:00:38.493Z,951.00
2023-05-05T12:01:38.503Z,948.00
2023-05-05T12:02:38.531Z,943.00
2023-05-05T12:03:38.738Z,933.00
2023-05-05T12:04:38.602Z,934.00
2023-05-05T12:05:38.983Z,942.00
2023-05-05T12:06:38.575Z,946.00
2023-05-05T12:07:38.569Z,934.00
2023-05-05T12:08:38.595Z,927.00
2023-05-05T12:09:38.603Z,930.00
2023-05-05T12:10:38.991Z,936.00
2023-05-05T12:11:38.651Z,927.00
2023-05-05T12:12:38.765Z,913.00
2023-05-05T12:13:38.701Z,922.00
2023-05-05T12:14:38.740Z,929.00
2023-05-05T12:15:39.023Z,911.00
2023-05-05T12:16:38.801Z,896.00
2023-05-05T12:17:38.948Z,886.00
2023-05-05T12:18:38.862Z,890.00
2023-05-05T12:19:38.850Z,885.00
2023-05-05T12:20:39.012Z,886.00
2023-05-05T12:21:38.967Z,889.00
2023-05-05T12:22:38.987Z,881.00
2023-05-05T12:23:39.017Z,874.00
2023-05-05T12:24:39.009Z,881.00